sensor_id;sensor_type;location;lat;lon;timestamp;pressure;altitude;pressure_sealevel;temperature;humidity
43125;BME280;49182;50.788;7.318;2023-02-04T00:00:57;102285.84;;;7.95;75.08
43125;BME280;49182;50.788;7.318;2023-02-04T00:03:24;102325.97;;;8.16;74.92
43125;BME280;49182;50.788;7.318;2023-02-04T00:05:51;102330.38;;;8.15;75.51
43125;BME280;49182;50.788;7.318;2023-02-04T00:08:18;102330.25;;;8.18;75.00
43125;BME280;49182;50.788;7.318;2023-02-04T00:10:45;102223.53;;;7.61;74.41
43125;BME280;49182;50.788;7.318;2023-02-04T00:13:12;102335.44;;;8.20;74.73
43125;BME280;49182;50.788;7.318;2023-02-04T00:15:39;102323.34;;;7.98;74.72
43125;BME280;49182;50.788;7.318;2023-02-04T00:18:05;102360.19;;;8.16;75.21
43125;BME280;49182;50.788;7.318;2023-02-04T00:20:32;102355.63;;;8.19;75.06
43125;BME280;49182;50.788;7.318;2023-02-04T00:22:59;102358.09;;;8.22;74.90
43125;BME280;49182;50.788;7.318;2023-02-04T00:25:26;102359.25;;;8.17;75.20
43125;BME280;49182;50.788;7.318;2023-02-04T00:27:54;102356.31;;;8.23;74.93
43125;BME280;49182;50.788;7.318;2023-02-04T00:30:20;102327.91;;;7.95;75.53
43125;BME280;49182;50.788;7.318;2023-02-04T00:32:47;102361.88;;;8.17;75.09
43125;BME280;49182;50.788;7.318;2023-02-04T00:35:14;102325.91;;;8.00;75.77
43125;BME280;49182;50.788;7.318;2023-02-04T00:37:40;102258.25;;;7.50;76.00
43125;BME280;49182;50.788;7.318;2023-02-04T00:40:09;102367.31;;;8.13;75.68
43125;BME280;49182;50.788;7.318;2023-02-04T00:42:37;102268.75;;;7.50;75.31
43125;BME280;49182;50.788;7.318;2023-02-04T00:45:06;102348.03;;;7.96;75.87
43125;BME280;49182;50.788;7.318;2023-02-04T00:47:33;102372.94;;;8.06;75.31
43125;BME280;49182;50.788;7.318;2023-02-04T00:49:59;102369.41;;;8.07;75.04
43125;BME280;49182;50.788;7.318;2023-02-04T00:52:26;102373.44;;;8.14;75.13
43125;BME280;49182;50.788;7.318;2023-02-04T00:54:53;102330.75;;;7.90;74.83
43125;BME280;49182;50.788;7.318;2023-02-04T00:57:20;102354.22;;;7.95;74.92
43125;BME280;49182;50.788;7.318;2023-02-04T00:59:47;102346.75;;;7.86;74.98
43125;BME280;49182;50.788;7.318;2023-02-04T01:02:17;102342.34;;;7.86;75.03
43125;BME280;49182;50.788;7.318;2023-02-04T01:04:44;102390.44;;;8.07;75.18
43125;BME280;49182;50.788;7.318;2023-02-04T01:07:10;102384.59;;;8.19;74.52
43125;BME280;49182;50.788;7.318;2023-02-04T01:09:37;102351.94;;;7.87;75.23
43125;BME280;49182;50.788;7.318;2023-02-04T01:12:03;102379.09;;;7.88;75.52
43125;BME280;49182;50.788;7.318;2023-02-04T01:14:30;102395.16;;;8.00;76.05
43125;BME280;49182;50.788;7.318;2023-02-04T01:16:57;102402.31;;;7.97;75.97
43125;BME280;49182;50.788;7.318;2023-02-04T01:19:26;102394.53;;;7.95;75.28
43125;BME280;49182;50.788;7.318;2023-02-04T01:21:53;102395.38;;;7.96;75.48
43125;BME280;49182;50.788;7.318;2023-02-04T01:24:19;102398.84;;;7.96;75.30
43125;BME280;49182;50.788;7.318;2023-02-04T01:27:05;102403.09;;;7.99;75.24
43125;BME280;49182;50.788;7.318;2023-02-04T01:29:31;102403.41;;;7.93;75.42
43125;BME280;49182;50.788;7.318;2023-02-04T01:31:58;102401.25;;;8.01;74.98
43125;BME280;49182;50.788;7.318;2023-02-04T01:34:26;102413.78;;;7.96;75.27
43125;BME280;49182;50.788;7.318;2023-02-04T01:36:52;102422.94;;;7.87;75.31
43125;BME280;49182;50.788;7.318;2023-02-04T01:39:19;102433.75;;;8.00;74.47
43125;BME280;49182;50.788;7.318;2023-02-04T01:41:46;102379.25;;;7.66;74.41
43125;BME280;49182;50.788;7.318;2023-02-04T01:44:13;102428.56;;;7.98;74.33
43125;BME280;49182;50.788;7.318;2023-02-04T01:46:40;102417.53;;;7.71;74.34
43125;BME280;49182;50.788;7.318;2023-02-04T01:49:09;102403.94;;;7.63;74.85
43125;BME280;49182;50.788;7.318;2023-02-04T01:51:38;102446.34;;;7.93;74.75
43125;BME280;49182;50.788;7.318;2023-02-04T01:54:05;102439.38;;;7.92;74.80
43125;BME280;49182;50.788;7.318;2023-02-04T01:56:34;102425.81;;;7.83;74.64
43125;BME280;49182;50.788;7.318;2023-02-04T01:59:01;102417.34;;;7.76;74.48
43125;BME280;49182;50.788;7.318;2023-02-04T02:01:35;102450.16;;;7.86;74.62
43125;BME280;49182;50.788;7.318;2023-02-04T02:04:03;102448.41;;;7.87;75.20
43125;BME280;49182;50.788;7.318;2023-02-04T02:06:32;102446.63;;;7.87;74.94
43125;BME280;49182;50.788;7.318;2023-02-04T02:09:00;102454.56;;;7.86;75.25
43125;BME280;49182;50.788;7.318;2023-02-04T02:11:27;102449.38;;;7.84;75.50
43125;BME280;49182;50.788;7.318;2023-02-04T02:13:55;102441.72;;;7.80;75.42
43125;BME280;49182;50.788;7.318;2023-02-04T02:16:22;102440.44;;;7.88;75.03
43125;BME280;49182;50.788;7.318;2023-02-04T02:18:48;102427.38;;;7.68;74.93
43125;BME280;49182;50.788;7.318;2023-02-04T02:21:18;102423.81;;;7.69;75.48
43125;BME280;49182;50.788;7.318;2023-02-04T02:23:51;102464.34;;;7.84;75.40
43125;BME280;49182;50.788;7.318;2023-02-04T02:26:20;102441.50;;;7.65;75.14
43125;BME280;49182;50.788;7.318;2023-02-04T02:28:48;102408.09;;;7.49;75.17
43125;BME280;49182;50.788;7.318;2023-02-04T02:31:15;102462.06;;;7.76;75.76
43125;BME280;49182;50.788;7.318;2023-02-04T02:33:44;102446.28;;;7.76;75.75
43125;BME280;49182;50.788;7.318;2023-02-04T02:36:11;102468.06;;;7.78;75.79
43125;BME280;49182;50.788;7.318;2023-02-04T02:38:38;102462.13;;;7.75;75.71
43125;BME280;49182;50.788;7.318;2023-02-04T02:41:07;102461.19;;;7.76;76.05
43125;BME280;49182;50.788;7.318;2023-02-04T02:43:34;102475.25;;;7.75;76.28
43125;BME280;49182;50.788;7.318;2023-02-04T02:46:03;102430.84;;;7.50;76.36
43125;BME280;49182;50.788;7.318;2023-02-04T02:48:31;102468.28;;;7.73;76.51
43125;BME280;49182;50.788;7.318;2023-02-04T02:50:58;102466.75;;;7.69;76.33
43125;BME280;49182;50.788;7.318;2023-02-04T02:53:24;102453.22;;;7.58;76.34
43125;BME280;49182;50.788;7.318;2023-02-04T02:55:51;102481.22;;;7.78;76.77
43125;BME280;49182;50.788;7.318;2023-02-04T02:58:25;102472.91;;;7.68;76.43
43125;BME280;49182;50.788;7.318;2023-02-04T03:00:55;102496.22;;;7.76;76.84
43125;BME280;49182;50.788;7.318;2023-02-04T03:03:25;102483.38;;;7.70;76.59
43125;BME280;49182;50.788;7.318;2023-02-04T03:05:56;102497.22;;;7.73;77.08
43125;BME280;49182;50.788;7.318;2023-02-04T03:08:25;102477.81;;;7.57;76.75
43125;BME280;49182;50.788;7.318;2023-02-04T03:10:52;102494.91;;;7.66;77.14
43125;BME280;49182;50.788;7.318;2023-02-04T03:13:19;102494.91;;;7.66;77.69
43125;BME280;49182;50.788;7.318;2023-02-04T03:15:47;102460.03;;;7.44;78.20
43125;BME280;49182;50.788;7.318;2023-02-04T03:18:16;102493.53;;;7.59;78.42
43125;BME280;49182;50.788;7.318;2023-02-04T03:20:44;102507.50;;;7.59;78.63
43125;BME280;49182;50.788;7.318;2023-02-04T03:23:11;102484.09;;;7.53;79.24
43125;BME280;49182;50.788;7.318;2023-02-04T03:25:40;102505.59;;;7.63;79.19
43125;BME280;49182;50.788;7.318;2023-02-04T03:28:07;102482.69;;;7.46;79.60
43125;BME280;49182;50.788;7.318;2023-02-04T03:30:35;102510.22;;;7.58;80.25
43125;BME280;49182;50.788;7.318;2023-02-04T03:33:03;102505.13;;;7.53;80.53
43125;BME280;49182;50.788;7.318;2023-02-04T03:35:30;102509.56;;;7.53;80.68
43125;BME280;49182;50.788;7.318;2023-02-04T03:37:56;102512.25;;;7.51;80.86
43125;BME280;49182;50.788;7.318;2023-02-04T03:40:23;102521.84;;;7.52;81.41
43125;BME280;49182;50.788;7.318;2023-02-04T03:42:49;102527.16;;;7.51;81.65
43125;BME280;49182;50.788;7.318;2023-02-04T03:45:16;102494.56;;;7.35;81.28
43125;BME280;49182;50.788;7.318;2023-02-04T03:47:42;102521.97;;;7.49;81.60
43125;BME280;49182;50.788;7.318;2023-02-04T03:50:10;102524.59;;;7.49;81.52
43125;BME280;49182;50.788;7.318;2023-02-04T03:52:37;102520.41;;;7.45;81.75
43125;BME280;49182;50.788;7.318;2023-02-04T03:55:03;102524.81;;;7.45;81.92
43125;BME280;49182;50.788;7.318;2023-02-04T03:57:30;102503.84;;;7.23;82.21
43125;BME280;49182;50.788;7.318;2023-02-04T03:59:57;102534.72;;;7.38;82.17
43125;BME280;49182;50.788;7.318;2023-02-04T04:02:23;102525.94;;;7.39;82.60
43125;BME280;49182;50.788;7.318;2023-02-04T04:04:50;102527.06;;;7.34;82.90
43125;BME280;49182;50.788;7.318;2023-02-04T04:07:18;102529.00;;;7.28;82.58
43125;BME280;49182;50.788;7.318;2023-02-04T04:09:45;102496.00;;;7.03;83.06
43125;BME280;49182;50.788;7.318;2023-02-04T04:12:11;102522.25;;;7.23;82.98
43125;BME280;49182;50.788;7.318;2023-02-04T04:14:38;102537.03;;;7.25;82.88
43125;BME280;49182;50.788;7.318;2023-02-04T04:17:04;102536.97;;;7.27;82.72
43125;BME280;49182;50.788;7.318;2023-02-04T04:19:31;102542.22;;;7.27;83.27
43125;BME280;49182;50.788;7.318;2023-02-04T04:21:58;102483.13;;;6.97;83.26
43125;BME280;49182;50.788;7.318;2023-02-04T04:24:25;102532.75;;;7.23;83.06
43125;BME280;49182;50.788;7.318;2023-02-04T04:26:52;102536.88;;;7.28;83.64
43125;BME280;49182;50.788;7.318;2023-02-04T04:29:19;102539.59;;;7.27;83.60
43125;BME280;49182;50.788;7.318;2023-02-04T04:31:46;102541.47;;;7.23;83.94
43125;BME280;49182;50.788;7.318;2023-02-04T04:34:12;102541.44;;;7.25;83.43
43125;BME280;49182;50.788;7.318;2023-02-04T04:36:39;102548.41;;;7.26;84.04
43125;BME280;49182;50.788;7.318;2023-02-04T04:39:06;102546.47;;;7.29;84.08
43125;BME280;49182;50.788;7.318;2023-02-04T04:41:33;102540.38;;;7.29;83.88
43125;BME280;49182;50.788;7.318;2023-02-04T04:44:00;102537.22;;;7.21;84.03
43125;BME280;49182;50.788;7.318;2023-02-04T04:46:27;102547.38;;;7.28;83.84
43125;BME280;49182;50.788;7.318;2023-02-04T04:48:54;102552.75;;;7.27;84.17
43125;BME280;49182;50.788;7.318;2023-02-04T04:51:20;102554.44;;;7.28;83.82
43125;BME280;49182;50.788;7.318;2023-02-04T04:53:47;102564.88;;;7.29;84.54
43125;BME280;49182;50.788;7.318;2023-02-04T04:56:13;102511.88;;;7.00;83.96
43125;BME280;49182;50.788;7.318;2023-02-04T04:58:41;102573.66;;;7.28;84.47
43125;BME280;49182;50.788;7.318;2023-02-04T05:01:08;102452.44;;;6.57;84.38
43125;BME280;49182;50.788;7.318;2023-02-04T05:03:34;102538.78;;;7.05;84.59
43125;BME280;49182;50.788;7.318;2023-02-04T05:06:01;102584.06;;;7.31;84.18
43125;BME280;49182;50.788;7.318;2023-02-04T05:08:28;102586.69;;;7.31;84.44
43125;BME280;49182;50.788;7.318;2023-02-04T05:10:54;102584.97;;;7.30;84.28
43125;BME280;49182;50.788;7.318;2023-02-04T05:13:21;102583.16;;;7.32;84.44
43125;BME280;49182;50.788;7.318;2023-02-04T05:15:49;102584.00;;;7.33;84.01
43125;BME280;49182;50.788;7.318;2023-02-04T05:18:15;102594.69;;;7.28;84.46
43125;BME280;49182;50.788;7.318;2023-02-04T05:20:42;102592.84;;;7.30;84.35
43125;BME280;49182;50.788;7.318;2023-02-04T05:23:09;102586.69;;;7.31;84.24
43125;BME280;49182;50.788;7.318;2023-02-04T05:25:35;102588.41;;;7.32;84.40
43125;BME280;49182;50.788;7.318;2023-02-04T05:28:02;102551.75;;;7.09;84.31
43125;BME280;49182;50.788;7.318;2023-02-04T05:30:28;102586.88;;;7.27;84.84
43125;BME280;49182;50.788;7.318;2023-02-04T05:32:57;102586.75;;;7.30;84.48
43125;BME280;49182;50.788;7.318;2023-02-04T05:35:23;102590.22;;;7.30;84.71
43125;BME280;49182;50.788;7.318;2023-02-04T05:37:50;102550.28;;;7.02;84.61
43125;BME280;49182;50.788;7.318;2023-02-04T05:40:17;102590.38;;;7.27;84.93
43125;BME280;49182;50.788;7.318;2023-02-04T05:42:43;102599.03;;;7.29;84.81
43125;BME280;49182;50.788;7.318;2023-02-04T05:45:13;102595.63;;;7.27;85.09
43125;BME280;49182;50.788;7.318;2023-02-04T05:47:40;102596.75;;;7.22;85.45
43125;BME280;49182;50.788;7.318;2023-02-04T05:50:09;102602.00;;;7.22;85.42
43125;BME280;49182;50.788;7.318;2023-02-04T05:52:36;102609.88;;;7.22;85.82
43125;BME280;49182;50.788;7.318;2023-02-04T05:55:03;102606.31;;;7.23;85.39
43125;BME280;49182;50.788;7.318;2023-02-04T05:57:30;102617.63;;;7.25;85.15
43125;BME280;49182;50.788;7.318;2023-02-04T05:59:56;102614.94;;;7.26;85.51
43125;BME280;49182;50.788;7.318;2023-02-04T06:02:23;102610.72;;;7.22;85.69
43125;BME280;49182;50.788;7.318;2023-02-04T06:04:50;102620.31;;;7.23;85.65
43125;BME280;49182;50.788;7.318;2023-02-04T06:07:18;102630.03;;;7.21;85.89
43125;BME280;49182;50.788;7.318;2023-02-04T06:09:44;102618.19;;;7.11;86.10
43125;BME280;49182;50.788;7.318;2023-02-04T06:12:11;102628.44;;;7.17;85.93
43125;BME280;49182;50.788;7.318;2023-02-04T06:14:37;102632.06;;;7.15;86.26
43125;BME280;49182;50.788;7.318;2023-02-04T06:17:04;102638.09;;;7.17;86.14
43125;BME280;49182;50.788;7.318;2023-02-04T06:19:31;102640.81;;;7.15;85.87
43125;BME280;49182;50.788;7.318;2023-02-04T06:21:57;102621.97;;;7.04;86.32
43125;BME280;49182;50.788;7.318;2023-02-04T06:24:25;102649.41;;;7.19;86.69
43125;BME280;49182;50.788;7.318;2023-02-04T06:26:52;102575.09;;;6.73;86.03
43125;BME280;49182;50.788;7.318;2023-02-04T06:29:18;102649.44;;;7.17;86.68
43125;BME280;49182;50.788;7.318;2023-02-04T06:31:45;102641.75;;;7.13;86.21
43125;BME280;49182;50.788;7.318;2023-02-04T06:34:12;102650.91;;;7.24;86.71
43125;BME280;49182;50.788;7.318;2023-02-04T06:36:38;102621.91;;;7.06;86.21
43125;BME280;49182;50.788;7.318;2023-02-04T06:39:05;102601.66;;;6.87;86.59
43125;BME280;49182;50.788;7.318;2023-02-04T06:41:33;102662.41;;;7.22;86.53
43125;BME280;49182;50.788;7.318;2023-02-04T06:43:59;102665.97;;;7.21;86.67
43125;BME280;49182;50.788;7.318;2023-02-04T06:46:26;102661.72;;;7.17;87.00
43125;BME280;49182;50.788;7.318;2023-02-04T06:48:53;102547.19;;;6.49;87.18
43125;BME280;49182;50.788;7.318;2023-02-04T06:51:19;102656.66;;;7.12;87.01
43125;BME280;49182;50.788;7.318;2023-02-04T06:53:46;102651.66;;;7.06;87.38
43125;BME280;49182;50.788;7.318;2023-02-04T06:56:13;102677.44;;;7.18;87.18
43125;BME280;49182;50.788;7.318;2023-02-04T06:58:41;102677.13;;;7.04;87.43
43125;BME280;49182;50.788;7.318;2023-02-04T07:01:07;102687.22;;;7.15;87.45
43125;BME280;49182;50.788;7.318;2023-02-04T07:03:34;102683.69;;;7.16;86.84
43125;BME280;49182;50.788;7.318;2023-02-04T07:06:00;102682.03;;;7.13;87.38
43125;BME280;49182;50.788;7.318;2023-02-04T07:08:27;102682.94;;;7.12;87.07
43125;BME280;49182;50.788;7.318;2023-02-04T07:10:54;102686.41;;;7.13;87.39
43125;BME280;49182;50.788;7.318;2023-02-04T07:13:20;102688.25;;;7.11;87.51
43125;BME280;49182;50.788;7.318;2023-02-04T07:15:48;102697.03;;;7.10;87.25
43125;BME280;49182;50.788;7.318;2023-02-04T07:18:14;102694.41;;;7.10;87.11
43125;BME280;49182;50.788;7.318;2023-02-04T07:20:41;102694.19;;;7.16;87.26
43125;BME280;49182;50.788;7.318;2023-02-04T07:23:08;102641.28;;;6.81;87.07
43125;BME280;49182;50.788;7.318;2023-02-04T07:25:34;102693.50;;;7.11;87.17
43125;BME280;49182;50.788;7.318;2023-02-04T07:28:01;102656.31;;;6.78;87.34
43125;BME280;49182;50.788;7.318;2023-02-04T07:30:28;102708.78;;;7.01;87.86
43125;BME280;49182;50.788;7.318;2023-02-04T07:32:56;102703.53;;;7.01;88.00
43125;BME280;49182;50.788;7.318;2023-02-04T07:35:22;102706.00;;;7.04;88.14
43125;BME280;49182;50.788;7.318;2023-02-04T07:37:49;102710.41;;;7.04;87.59
43125;BME280;49182;50.788;7.318;2023-02-04T07:40:18;102712.97;;;7.05;87.53
43125;BME280;49182;50.788;7.318;2023-02-04T07:42:44;102716.47;;;7.06;87.51
43125;BME280;49182;50.788;7.318;2023-02-04T07:45:15;102591.38;;;6.38;87.62
43125;BME280;49182;50.788;7.318;2023-02-04T07:47:42;102664.97;;;6.80;87.78
43125;BME280;49182;50.788;7.318;2023-02-04T07:50:10;102715.41;;;7.10;87.63
43125;BME280;49182;50.788;7.318;2023-02-04T07:52:37;102715.31;;;7.13;87.84
43125;BME280;49182;50.788;7.318;2023-02-04T07:55:04;102724.84;;;7.15;87.95
43125;BME280;49182;50.788;7.318;2023-02-04T07:57:31;102724.72;;;7.18;87.97
43125;BME280;49182;50.788;7.318;2023-02-04T07:59:57;102723.75;;;7.21;88.02
43125;BME280;49182;50.788;7.318;2023-02-04T08:02:24;102728.88;;;7.24;87.70
43125;BME280;49182;50.788;7.318;2023-02-04T08:04:51;102731.31;;;7.28;87.97
43125;BME280;49182;50.788;7.318;2023-02-04T08:07:19;102734.69;;;7.32;88.00
43125;BME280;49182;50.788;7.318;2023-02-04T08:09:46;102746.78;;;7.36;88.06
43125;BME280;49182;50.788;7.318;2023-02-04T08:12:13;102745.75;;;7.40;87.88
43125;BME280;49182;50.788;7.318;2023-02-04T08:14:40;102752.44;;;7.47;87.30
43125;BME280;49182;50.788;7.318;2023-02-04T08:17:06;102747.94;;;7.51;87.47
43125;BME280;49182;50.788;7.318;2023-02-04T08:19:33;102698.19;;;7.24;87.51
43125;BME280;49182;50.788;7.318;2023-02-04T08:22:00;102752.81;;;7.60;87.35
43125;BME280;49182;50.788;7.318;2023-02-04T08:24:28;102751.69;;;7.65;86.97
43125;BME280;49182;50.788;7.318;2023-02-04T08:26:54;102750.72;;;7.68;86.66
43125;BME280;49182;50.788;7.318;2023-02-04T08:29:21;102692.25;;;7.41;86.06
43125;BME280;49182;50.788;7.318;2023-02-04T08:31:48;102695.94;;;7.37;85.96
43125;BME280;49182;50.788;7.318;2023-02-04T08:34:14;102753.06;;;7.76;85.96
43125;BME280;49182;50.788;7.318;2023-02-04T08:36:41;102718.03;;;7.53;85.94
43125;BME280;49182;50.788;7.318;2023-02-04T08:39:08;102757.19;;;7.81;86.10
43125;BME280;49182;50.788;7.318;2023-02-04T08:41:36;102746.44;;;7.87;85.69
43125;BME280;49182;50.788;7.318;2023-02-04T08:44:03;102704.59;;;7.61;85.55
43125;BME280;49182;50.788;7.318;2023-02-04T08:46:30;102751.44;;;7.93;85.15
43125;BME280;49182;50.788;7.318;2023-02-04T08:48:56;102767.75;;;8.01;85.31
43125;BME280;49182;50.788;7.318;2023-02-04T08:51:23;102757.28;;;8.00;85.21
43125;BME280;49182;50.788;7.318;2023-02-04T08:53:50;102770.72;;;8.14;85.34
43125;BME280;49182;50.788;7.318;2023-02-04T08:56:16;102771.22;;;8.22;85.19
43125;BME280;49182;50.788;7.318;2023-02-04T08:58:45;102758.22;;;8.19;84.75
43125;BME280;49182;50.788;7.318;2023-02-04T09:01:11;102773.94;;;8.41;83.63
43125;BME280;49182;50.788;7.318;2023-02-04T09:03:38;102782.47;;;8.46;83.17
43125;BME280;49182;50.788;7.318;2023-02-04T09:06:05;102788.44;;;8.51;81.90
43125;BME280;49182;50.788;7.318;2023-02-04T09:08:32;102742.16;;;8.25;81.20
43125;BME280;49182;50.788;7.318;2023-02-04T09:10:59;102793.53;;;8.54;81.57
43125;BME280;49182;50.788;7.318;2023-02-04T09:13:27;102797.09;;;8.53;81.52
43125;BME280;49182;50.788;7.318;2023-02-04T09:15:55;102795.38;;;8.52;81.69
43125;BME280;49182;50.788;7.318;2023-02-04T09:18:21;102804.66;;;8.61;81.00
43125;BME280;49182;50.788;7.318;2023-02-04T09:20:49;102803.97;;;8.57;80.91
43125;BME280;49182;50.788;7.318;2023-02-04T09:23:15;102795.84;;;8.62;80.53
43125;BME280;49182;50.788;7.318;2023-02-04T09:25:43;102811.03;;;8.75;80.06
43125;BME280;49182;50.788;7.318;2023-02-04T09:28:11;102806.53;;;8.77;79.94
43125;BME280;49182;50.788;7.318;2023-02-04T09:30:39;102812.19;;;8.88;79.49
43125;BME280;49182;50.788;7.318;2023-02-04T09:33:09;102800.88;;;8.86;78.99
43125;BME280;49182;50.788;7.318;2023-02-04T09:35:36;102798.50;;;8.80;78.65
43125;BME280;49182;50.788;7.318;2023-02-04T09:38:03;102817.19;;;8.95;78.18
43125;BME280;49182;50.788;7.318;2023-02-04T09:40:32;102816.25;;;8.96;78.01
43125;BME280;49182;50.788;7.318;2023-02-04T09:43:01;102828.22;;;9.03;77.65
43125;BME280;49182;50.788;7.318;2023-02-04T09:45:31;102829.22;;;9.00;76.79
43125;BME280;49182;50.788;7.318;2023-02-04T09:48:00;102826.44;;;9.03;76.75
43125;BME280;49182;50.788;7.318;2023-02-04T09:50:29;102829.59;;;9.11;77.32
43125;BME280;49182;50.788;7.318;2023-02-04T09:52:59;102831.09;;;9.17;77.32
43125;BME280;49182;50.788;7.318;2023-02-04T09:55:29;102835.09;;;9.25;77.89
43125;BME280;49182;50.788;7.318;2023-02-04T09:57:57;102834.88;;;9.30;77.81
43125;BME280;49182;50.788;7.318;2023-02-04T10:00:25;102844.41;;;9.32;77.98
43125;BME280;49182;50.788;7.318;2023-02-04T10:02:52;102836.00;;;9.24;77.51
43125;BME280;49182;50.788;7.318;2023-02-04T10:05:25;102838.72;;;9.23;76.25
43125;BME280;49182;50.788;7.318;2023-02-04T10:07:54;102840.94;;;9.13;76.04
43125;BME280;49182;50.788;7.318;2023-02-04T10:10:22;102846.47;;;9.26;74.91
43125;BME280;49182;50.788;7.318;2023-02-04T10:12:51;102852.59;;;9.26;75.64
43125;BME280;49182;50.788;7.318;2023-02-04T10:15:19;102833.50;;;9.21;74.96
43125;BME280;49182;50.788;7.318;2023-02-04T10:17:47;102822.19;;;9.19;75.53
43125;BME280;49182;50.788;7.318;2023-02-04T10:20:18;102848.91;;;9.30;75.15
43125;BME280;49182;50.788;7.318;2023-02-04T10:22:51;102848.41;;;9.41;74.83
43125;BME280;49182;50.788;7.318;2023-02-04T10:25:22;102848.03;;;9.49;74.60
43125;BME280;49182;50.788;7.318;2023-02-04T10:27:50;102852.66;;;9.62;74.23
43125;BME280;49182;50.788;7.318;2023-02-04T10:30:19;102848.09;;;9.66;74.27
43125;BME280;49182;50.788;7.318;2023-02-04T10:32:46;102847.28;;;9.83;74.04
43125;BME280;49182;50.788;7.318;2023-02-04T10:35:15;102842.31;;;9.94;73.98
43125;BME280;49182;50.788;7.318;2023-02-04T10:37:42;102848.56;;;10.10;71.63
43125;BME280;49182;50.788;7.318;2023-02-04T10:40:26;102848.22;;;10.18;71.03
43125;BME280;49182;50.788;7.318;2023-02-04T10:42:53;102844.31;;;10.25;70.16
43125;BME280;49182;50.788;7.318;2023-02-04T10:45:21;102841.91;;;10.20;69.75
43125;BME280;49182;50.788;7.318;2023-02-04T10:47:50;102855.59;;;10.45;68.84
43125;BME280;49182;50.788;7.318;2023-02-04T10:50:18;102852.81;;;10.48;68.74
43125;BME280;49182;50.788;7.318;2023-02-04T10:52:48;102852.88;;;10.30;68.36
43125;BME280;49182;50.788;7.318;2023-02-04T10:55:16;102858.88;;;10.14;69.16
43125;BME280;49182;50.788;7.318;2023-02-04T10:57:47;102860.31;;;10.22;69.48
43125;BME280;49182;50.788;7.318;2023-02-04T11:00:16;102854.88;;;10.25;69.88
43125;BME280;49182;50.788;7.318;2023-02-04T11:02:44;102869.09;;;10.39;69.66
43125;BME280;49182;50.788;7.318;2023-02-04T11:05:16;102866.16;;;10.45;70.19
43125;BME280;49182;50.788;7.318;2023-02-04T11:07:43;102851.00;;;10.49;70.31
43125;BME280;49182;50.788;7.318;2023-02-04T11:10:13;102856.13;;;10.52;70.06
43125;BME280;49182;50.788;7.318;2023-02-04T11:12:41;102851.63;;;10.54;70.30
43125;BME280;49182;50.788;7.318;2023-02-04T11:15:37;102849.13;;;10.51;69.69
43125;BME280;49182;50.788;7.318;2023-02-04T11:18:06;102849.00;;;10.37;69.46
43125;BME280;49182;50.788;7.318;2023-02-04T11:20:33;102854.19;;;10.38;68.72
43125;BME280;49182;50.788;7.318;2023-02-04T11:26:02;102851.84;;;10.49;69.37
43125;BME280;49182;50.788;7.318;2023-02-04T11:28:43;102853.03;;;10.61;69.22
43125;BME280;49182;50.788;7.318;2023-02-04T11:31:26;102844.00;;;10.65;69.33
43125;BME280;49182;50.788;7.318;2023-02-04T11:34:22;102843.81;;;10.68;67.42
43125;BME280;49182;50.788;7.318;2023-02-04T11:36:54;102839.19;;;10.56;66.66
43125;BME280;49182;50.788;7.318;2023-02-04T11:39:23;102807.56;;;10.37;66.94
43125;BME280;49182;50.788;7.318;2023-02-04T11:41:52;102843.44;;;10.76;67.51
43125;BME280;49182;50.788;7.318;2023-02-04T11:44:19;102854.84;;;10.76;66.89
43125;BME280;49182;50.788;7.318;2023-02-04T11:46:50;102853.19;;;10.91;66.96
43125;BME280;49182;50.788;7.318;2023-02-04T11:49:19;102839.47;;;10.84;66.50
43125;BME280;49182;50.788;7.318;2023-02-04T11:51:45;102845.63;;;11.01;65.89
43125;BME280;49182;50.788;7.318;2023-02-04T11:54:13;102856.25;;;10.83;64.29
43125;BME280;49182;50.788;7.318;2023-02-04T11:56:40;102809.03;;;10.60;65.19
43125;BME280;49182;50.788;7.318;2023-02-04T11:59:08;102840.53;;;10.80;64.91
43125;BME280;49182;50.788;7.318;2023-02-04T12:01:36;102843.63;;;10.88;64.95
43125;BME280;49182;50.788;7.318;2023-02-04T12:04:06;102846.53;;;10.84;65.26
43125;BME280;49182;50.788;7.318;2023-02-04T12:06:35;102851.50;;;10.90;65.70
43125;BME280;49182;50.788;7.318;2023-02-04T12:09:06;102853.09;;;10.92;65.14
43125;BME280;49182;50.788;7.318;2023-02-04T12:11:32;102853.84;;;10.62;64.35
43125;BME280;49182;50.788;7.318;2023-02-04T12:14:06;102858.63;;;10.55;65.34
43125;BME280;49182;50.788;7.318;2023-02-04T12:16:39;102853.09;;;10.60;65.43
43125;BME280;49182;50.788;7.318;2023-02-04T12:19:07;102846.97;;;10.59;65.50
43125;BME280;49182;50.788;7.318;2023-02-04T12:21:34;102862.81;;;10.59;65.37
43125;BME280;49182;50.788;7.318;2023-02-04T12:24:00;102864.91;;;10.52;65.16
43125;BME280;49182;50.788;7.318;2023-02-04T12:26:27;102864.66;;;10.57;65.45
43125;BME280;49182;50.788;7.318;2023-02-04T12:28:53;102855.34;;;10.50;64.58
43125;BME280;49182;50.788;7.318;2023-02-04T12:31:20;102849.66;;;10.58;64.28
43125;BME280;49182;50.788;7.318;2023-02-04T12:33:47;102845.94;;;10.62;65.03
43125;BME280;49182;50.788;7.318;2023-02-04T12:36:15;102814.97;;;10.48;65.96
43125;BME280;49182;50.788;7.318;2023-02-04T12:38:41;102844.47;;;10.73;65.93
43125;BME280;49182;50.788;7.318;2023-02-04T12:41:08;102845.38;;;10.72;65.64
43125;BME280;49182;50.788;7.318;2023-02-04T12:43:35;102855.03;;;10.56;65.35
43125;BME280;49182;50.788;7.318;2023-02-04T12:46:02;102859.31;;;10.41;66.09
43125;BME280;49182;50.788;7.318;2023-02-04T12:48:28;102850.94;;;10.33;65.92
43125;BME280;49182;50.788;7.318;2023-02-04T12:50:55;102854.34;;;10.52;66.51
43125;BME280;49182;50.788;7.318;2023-02-04T12:53:23;102863.13;;;10.53;66.03
43125;BME280;49182;50.788;7.318;2023-02-04T12:55:50;102861.28;;;10.55;66.02
43125;BME280;49182;50.788;7.318;2023-02-04T12:58:17;102862.25;;;10.52;65.92
43125;BME280;49182;50.788;7.318;2023-02-04T13:00:43;102865.59;;;10.56;65.68
43125;BME280;49182;50.788;7.318;2023-02-04T13:03:10;102863.66;;;10.60;65.20